sensor_id;sensor_type;location;lat;lon;timestamp;pressure;altitude;pressure_sealevel;temperature;humidity
19594;BME280;9944;48.240;16.478;2023-05-08T00:02:20;100465.63;;;8.59;63.94
19594;BME280;9944;48.240;16.478;2023-05-08T00:06:23;100465.66;;;8.61;64.05
19594;BME280;9944;48.240;16.478;2023-05-08T00:10:28;100469.13;;;8.60;64.08
19594;BME280;9944;48.240;16.478;2023-05-08T00:14:31;100461.97;;;8.49;63.98
19594;BME280;9944;48.240;16.478;2023-05-08T00:18:35;100453.03;;;8.40;63.77
19594;BME280;9944;48.240;16.478;2023-05-08T00:22:39;100466.94;;;8.32;63.90
19594;BME280;9944;48.240;16.478;2023-05-08T00:26:42;100466.00;;;8.30;64.07
19594;BME280;9944;48.240;16.478;2023-05-08T00:30:46;100468.56;;;8.26;64.06
19594;BME280;9944;48.240;16.478;2023-05-08T00:34:50;100458.00;;;8.23;64.11
19594;BME280;9944;48.240;16.478;2023-05-08T00:38:53;100456.22;;;8.22;64.44
19594;BME280;9944;48.240;16.478;2023-05-08T00:42:57;100457.94;;;8.20;64.16
19594;BME280;9944;48.240;16.478;2023-05-08T00:47:00;100459.59;;;8.13;64.36
19594;BME280;9944;48.240;16.478;2023-05-08T00:51:06;100450.75;;;8.09;64.75
19594;BME280;9944;48.240;16.478;2023-05-08T00:55:10;100463.00;;;8.07;64.83
19594;BME280;9944;48.240;16.478;2023-05-08T00:59:15;100471.75;;;8.06;65.01
19594;BME280;9944;48.240;16.478;2023-05-08T01:03:19;100469.13;;;8.06;65.05
19594;BME280;9944;48.240;16.478;2023-05-08T01:07:24;100456.00;;;8.08;65.01
19594;BME280;9944;48.240;16.478;2023-05-08T01:11:32;100465.63;;;8.07;64.79
19594;BME280;9944;48.240;16.478;2023-05-08T01:15:43;100466.41;;;8.03;64.87
19594;BME280;9944;48.240;16.478;2023-05-08T01:20:01;100471.66;;;8.00;64.95
19594;BME280;9944;48.240;16.478;2023-05-08T01:24:29;100471.56;;;7.95;65.15
19594;BME280;9944;48.240;16.478;2023-05-08T01:33:34;100462.59;;;7.86;65.16
19594;BME280;9944;48.240;16.478;2023-05-08T01:37:48;100469.50;;;7.79;65.35
19594;BME280;9944;48.240;16.478;2023-05-08T01:41:57;100478.25;;;7.78;65.44
19594;BME280;9944;48.240;16.478;2023-05-08T01:46:13;100478.28;;;7.79;65.22
19594;BME280;9944;48.240;16.478;2023-05-08T01:50:23;100476.41;;;7.72;65.39
19594;BME280;9944;48.240;16.478;2023-05-08T01:54:32;100476.34;;;7.69;65.62
19594;BME280;9944;48.240;16.478;2023-05-08T01:58:40;100479.88;;;7.71;65.67
19594;BME280;9944;48.240;16.478;2023-05-08T02:02:45;100482.50;;;7.71;65.62
19594;BME280;9944;48.240;16.478;2023-05-08T02:06:51;100487.78;;;7.73;65.59
19594;BME280;9944;48.240;16.478;2023-05-08T02:10:55;100480.75;;;7.72;65.52
19594;BME280;9944;48.240;16.478;2023-05-08T02:15:00;100490.47;;;7.74;65.72
19594;BME280;9944;48.240;16.478;2023-05-08T02:19:04;100485.13;;;7.71;65.75
19594;BME280;9944;48.240;16.478;2023-05-08T02:23:11;100489.41;;;7.66;65.44
19594;BME280;9944;48.240;16.478;2023-05-08T02:27:15;100484.91;;;7.59;65.44
19594;BME280;9944;48.240;16.478;2023-05-08T02:31:19;100497.97;;;7.56;65.44
19594;BME280;9944;48.240;16.478;2023-05-08T02:35:23;100492.66;;;7.53;65.35
19594;BME280;9944;48.240;16.478;2023-05-08T02:39:30;100493.44;;;7.49;65.60
19594;BME280;9944;48.240;16.478;2023-05-08T02:43:37;100495.09;;;7.43;65.75
19594;BME280;9944;48.240;16.478;2023-05-08T02:47:46;100491.56;;;7.41;65.82
19594;BME280;9944;48.240;16.478;2023-05-08T02:51:53;100496.81;;;7.41;65.40
19594;BME280;9944;48.240;16.478;2023-05-08T02:56:08;100494.00;;;7.34;65.73
19594;BME280;9944;48.240;16.478;2023-05-08T03:00:15;100502.66;;;7.28;65.98
19594;BME280;9944;48.240;16.478;2023-05-08T03:04:24;100509.59;;;7.24;66.13
19594;BME280;9944;48.240;16.478;2023-05-08T03:08:31;100506.94;;;7.23;66.13
19594;BME280;9944;48.240;16.478;2023-05-08T03:12:40;100510.44;;;7.22;65.89
19594;BME280;9944;48.240;16.478;2023-05-08T03:16:46;100507.72;;;7.19;66.09
19594;BME280;9944;48.240;16.478;2023-05-08T03:20:54;100510.34;;;7.19;66.17
19594;BME280;9944;48.240;16.478;2023-05-08T03:25:01;100501.59;;;7.18;66.28
19594;BME280;9944;48.240;16.478;2023-05-08T03:29:12;100514.66;;;7.15;66.16
19594;BME280;9944;48.240;16.478;2023-05-08T03:33:17;100510.19;;;7.13;66.14
19594;BME280;9944;48.240;16.478;2023-05-08T03:37:21;100524.06;;;7.05;65.89
19594;BME280;9944;48.240;16.478;2023-05-08T03:41:24;100520.56;;;7.05;66.03
19594;BME280;9944;48.240;16.478;2023-05-08T03:45:33;100524.88;;;7.03;66.11
19594;BME280;9944;48.240;16.478;2023-05-08T03:49:38;100529.22;;;7.02;65.93
19594;BME280;9944;48.240;16.478;2023-05-08T03:53:42;100520.41;;;6.99;65.92
19594;BME280;9944;48.240;16.478;2023-05-08T03:57:51;100511.56;;;6.95;66.11
19594;BME280;9944;48.240;16.478;2023-05-08T04:02:11;100522.06;;;6.95;66.29
19594;BME280;9944;48.240;16.478;2023-05-08T04:06:24;100524.69;;;6.95;66.35
19594;BME280;9944;48.240;16.478;2023-05-08T04:10:48;100529.03;;;6.93;66.30
19594;BME280;9944;48.240;16.478;2023-05-08T04:14:55;100530.81;;;6.94;66.30
19594;BME280;9944;48.240;16.478;2023-05-08T04:19:08;100538.63;;;6.91;66.26
19594;BME280;9944;48.240;16.478;2023-05-08T04:23:16;100528.94;;;6.90;66.41
19594;BME280;9944;48.240;16.478;2023-05-08T04:27:22;100528.94;;;6.90;66.47
19594;BME280;9944;48.240;16.478;2023-05-08T04:31:26;100538.63;;;6.91;66.65
19594;BME280;9944;48.240;16.478;2023-05-08T04:35:32;100550.88;;;6.92;66.55
19594;BME280;9944;48.240;16.478;2023-05-08T04:39:36;100555.16;;;6.89;66.60
19594;BME280;9944;48.240;16.478;2023-05-08T04:43:40;100556.94;;;6.90;66.72
19594;BME280;9944;48.240;16.478;2023-05-08T04:47:44;100552.66;;;6.93;66.85
19594;BME280;9944;48.240;16.478;2023-05-08T04:51:49;100558.84;;;6.97;66.98
19594;BME280;9944;48.240;16.478;2023-05-08T04:55:52;100561.53;;;6.98;67.12
19594;BME280;9944;48.240;16.478;2023-05-08T04:59:56;100565.94;;;6.99;66.81
19594;BME280;9944;48.240;16.478;2023-05-08T05:03:59;100558.91;;;6.98;67.22
19594;BME280;9944;48.240;16.478;2023-05-08T05:08:04;100566.88;;;7.03;67.33
19594;BME280;9944;48.240;16.478;2023-05-08T05:12:07;100571.34;;;7.07;67.49
19594;BME280;9944;48.240;16.478;2023-05-08T05:16:10;100574.94;;;7.11;67.21
19594;BME280;9944;48.240;16.478;2023-05-08T05:20:14;100582.25;;;7.24;67.64
19594;BME280;9944;48.240;16.478;2023-05-08T05:24:19;100573.63;;;7.31;67.58
19594;BME280;9944;48.240;16.478;2023-05-08T05:28:22;100569.50;;;7.42;67.04
19594;BME280;9944;48.240;16.478;2023-05-08T05:32:29;100577.66;;;7.55;67.20
19594;BME280;9944;48.240;16.478;2023-05-08T05:36:33;100571.00;;;7.72;66.89
19594;BME280;9944;48.240;16.478;2023-05-08T05:40:38;100573.16;;;7.92;66.65
19594;BME280;9944;48.240;16.478;2023-05-08T05:44:42;100569.13;;;8.11;65.71
19594;BME280;9944;48.240;16.478;2023-05-08T05:48:45;100582.56;;;8.26;65.87
19594;BME280;9944;48.240;16.478;2023-05-08T05:52:49;100584.72;;;8.47;65.61
19594;BME280;9944;48.240;16.478;2023-05-08T05:56:54;100578.84;;;8.64;65.11
19594;BME280;9944;48.240;16.478;2023-05-08T06:00:57;100586.13;;;8.79;64.25
19594;BME280;9944;48.240;16.478;2023-05-08T06:05:04;100589.16;;;9.05;63.83
19594;BME280;9944;48.240;16.478;2023-05-08T06:09:07;100584.19;;;9.26;63.58
19594;BME280;9944;48.240;16.478;2023-05-08T06:13:12;100584.56;;;9.51;62.71
19594;BME280;9944;48.240;16.478;2023-05-08T06:17:15;100586.47;;;9.61;62.44
19594;BME280;9944;48.240;16.478;2023-05-08T06:21:19;100594.59;;;9.81;62.22
19594;BME280;9944;48.240;16.478;2023-05-08T06:25:22;100592.06;;;9.89;61.93
19594;BME280;9944;48.240;16.478;2023-05-08T06:29:27;100599.09;;;9.90;61.65
19594;BME280;9944;48.240;16.478;2023-05-08T06:33:30;100600.84;;;9.88;61.51
19594;BME280;9944;48.240;16.478;2023-05-08T06:37:33;100602.69;;;9.94;61.90
19594;BME280;9944;48.240;16.478;2023-05-08T06:41:36;100606.38;;;10.07;61.08
19594;BME280;9944;48.240;16.478;2023-05-08T06:45:42;100599.44;;;10.18;60.46
19594;BME280;9944;48.240;16.478;2023-05-08T06:49:45;100601.41;;;10.37;60.69
19594;BME280;9944;48.240;16.478;2023-05-08T06:53:48;100607.72;;;10.55;60.32
19594;BME280;9944;48.240;16.478;2023-05-08T06:57:51;100607.81;;;10.62;59.62
19594;BME280;9944;48.240;16.478;2023-05-08T07:01:55;100601.78;;;10.77;59.20
19594;BME280;9944;48.240;16.478;2023-05-08T07:05:59;100602.03;;;11.08;59.10
19594;BME280;9944;48.240;16.478;2023-05-08T07:10:02;100599.63;;;11.41;58.65
19594;BME280;9944;48.240;16.478;2023-05-08T07:14:08;100603.19;;;11.52;57.73
19594;BME280;9944;48.240;16.478;2023-05-08T07:18:12;100599.75;;;11.65;57.13
19594;BME280;9944;48.240;16.478;2023-05-08T07:22:15;100590.97;;;11.75;56.78
19594;BME280;9944;48.240;16.478;2023-05-08T07:26:18;100597.19;;;11.82;56.47
19594;BME280;9944;48.240;16.478;2023-05-08T07:30:22;100597.16;;;11.76;55.97
19594;BME280;9944;48.240;16.478;2023-05-08T07:34:26;100602.41;;;11.68;56.37
19594;BME280;9944;48.240;16.478;2023-05-08T07:38:30;100595.47;;;11.89;56.00
19594;BME280;9944;48.240;16.478;2023-05-08T07:42:38;100606.03;;;11.95;55.47
19594;BME280;9944;48.240;16.478;2023-05-08T07:46:41;100604.31;;;12.11;55.57
19594;BME280;9944;48.240;16.478;2023-05-08T07:50:45;100603.50;;;12.32;56.19
19594;BME280;9944;48.240;16.478;2023-05-08T07:54:50;100610.59;;;12.58;54.81
19594;BME280;9944;48.240;16.478;2023-05-08T07:58:53;100609.78;;;12.62;53.84
19594;BME280;9944;48.240;16.478;2023-05-08T08:02:56;100599.19;;;12.73;54.89
19594;BME280;9944;48.240;16.478;2023-05-08T08:07:01;100603.59;;;13.11;54.91
19594;BME280;9944;48.240;16.478;2023-05-08T08:11:04;100600.91;;;13.24;54.11
19594;BME280;9944;48.240;16.478;2023-05-08T08:15:08;100600.91;;;13.23;54.41
19594;BME280;9944;48.240;16.478;2023-05-08T08:19:11;100605.34;;;13.12;54.23
19594;BME280;9944;48.240;16.478;2023-05-08T08:23:16;100591.22;;;12.96;53.41
19594;BME280;9944;48.240;16.478;2023-05-08T08:27:19;100598.28;;;12.77;53.40
19594;BME280;9944;48.240;16.478;2023-05-08T08:31:22;100596.53;;;12.83;54.40
19594;BME280;9944;48.240;16.478;2023-05-08T08:35:25;100600.03;;;12.98;53.21
19594;BME280;9944;48.240;16.478;2023-05-08T08:39:32;100590.31;;;13.04;52.62
19594;BME280;9944;48.240;16.478;2023-05-08T08:43:36;100594.75;;;13.22;53.13
19594;BME280;9944;48.240;16.478;2023-05-08T08:47:44;100596.47;;;13.34;52.62
19594;BME280;9944;48.240;16.478;2023-05-08T08:51:51;100588.47;;;13.53;53.19
19594;BME280;9944;48.240;16.478;2023-05-08T08:55:57;100588.41;;;13.68;53.26
19594;BME280;9944;48.240;16.478;2023-05-08T09:00:04;100590.13;;;13.85;52.95
19594;BME280;9944;48.240;16.478;2023-05-08T09:04:09;100585.69;;;13.96;52.57
19594;BME280;9944;48.240;16.478;2023-05-08T09:08:12;100581.13;;;14.18;53.28
19594;BME280;9944;48.240;16.478;2023-05-08T09:12:17;100588.16;;;14.27;52.91
19594;BME280;9944;48.240;16.478;2023-05-08T09:16:20;100581.09;;;14.23;51.87
19594;BME280;9944;48.240;16.478;2023-05-08T09:20:23;100583.72;;;14.26;52.11
19594;BME280;9944;48.240;16.478;2023-05-08T09:24:54;100588.13;;;14.30;51.46
19594;BME280;9944;48.240;16.478;2023-05-08T09:29:13;100581.09;;;14.19;51.58
19594;BME280;9944;48.240;16.478;2023-05-08T09:33:17;100577.56;;;14.21;51.23
19594;BME280;9944;48.240;16.478;2023-05-08T09:37:20;100581.16;;;14.13;51.67
19594;BME280;9944;48.240;16.478;2023-05-08T09:41:23;100581.09;;;14.19;51.76
19594;BME280;9944;48.240;16.478;2023-05-08T09:45:29;100566.91;;;14.27;51.83
19594;BME280;9944;48.240;16.478;2023-05-08T09:49:33;100573.97;;;14.28;50.96
19594;BME280;9944;48.240;16.478;2023-05-08T09:53:36;100570.38;;;14.35;50.85
19594;BME280;9944;48.240;16.478;2023-05-08T09:57:51;100574.75;;;14.45;51.03
19594;BME280;9944;48.240;16.478;2023-05-08T10:01:55;100569.38;;;14.54;50.86
19594;BME280;9944;48.240;16.478;2023-05-08T10:06:11;100563.09;;;14.65;51.11
19594;BME280;9944;48.240;16.478;2023-05-08T10:10:21;100563.06;;;14.66;51.15
19594;BME280;9944;48.240;16.478;2023-05-08T10:14:26;100552.38;;;14.74;50.42
19594;BME280;9944;48.240;16.478;2023-05-08T10:18:32;100558.44;;;14.96;50.58
19594;BME280;9944;48.240;16.478;2023-05-08T10:22:39;100548.69;;;14.95;50.18
19594;BME280;9944;48.240;16.478;2023-05-08T10:26:55;100537.06;;;15.04;49.50
19594;BME280;9944;48.240;16.478;2023-05-08T10:31:10;100532.47;;;15.18;49.65
19594;BME280;9944;48.240;16.478;2023-05-08T10:35:15;100531.63;;;15.16;49.47
19594;BME280;9944;48.240;16.478;2023-05-08T10:39:19;100521.84;;;15.18;49.52
19594;BME280;9944;48.240;16.478;2023-05-08T10:43:23;100519.94;;;15.29;49.08
19594;BME280;9944;48.240;16.478;2023-05-08T10:47:31;100524.28;;;15.38;49.42
19594;BME280;9944;48.240;16.478;2023-05-08T10:51:41;100509.97;;;15.47;49.56
19594;BME280;9944;48.240;16.478;2023-05-08T10:55:49;100500.00;;;15.64;49.21
19594;BME280;9944;48.240;16.478;2023-05-08T10:59:52;100504.19;;;15.81;49.46
19594;BME280;9944;48.240;16.478;2023-05-08T11:03:55;100486.38;;;15.89;48.40
19594;BME280;9944;48.240;16.478;2023-05-08T11:08:00;100495.22;;;15.90;48.52
19594;BME280;9944;48.240;16.478;2023-05-08T11:12:06;100494.22;;;15.98;48.62
19594;BME280;9944;48.240;16.478;2023-05-08T11:16:10;100492.34;;;16.06;48.48
19594;BME280;9944;48.240;16.478;2023-05-08T11:20:13;100491.31;;;16.15;48.24
19594;BME280;9944;48.240;16.478;2023-05-08T11:24:18;100485.00;;;16.21;47.23
19594;BME280;9944;48.240;16.478;2023-05-08T11:28:21;100479.66;;;16.21;47.32
19594;BME280;9944;48.240;16.478;2023-05-08T11:37:01;100475.88;;;16.37;46.85
19594;BME280;9944;48.240;16.478;2023-05-08T11:41:08;100472.34;;;16.35;47.17
19594;BME280;9944;48.240;16.478;2023-05-08T11:45:12;100474.03;;;16.41;47.46
19594;BME280;9944;48.240;16.478;2023-05-08T11:49:17;100467.69;;;16.48;47.49
19594;BME280;9944;48.240;16.478;2023-05-08T11:53:27;100468.47;;;16.55;46.85
19594;BME280;9944;48.240;16.478;2023-05-08T11:57:32;100473.78;;;16.55;46.95
19594;BME280;9944;48.240;16.478;2023-05-08T12:01:35;100463.91;;;16.61;46.94
19594;BME280;9944;48.240;16.478;2023-05-08T12:05:39;100455.84;;;16.65;45.35
19594;BME280;9944;48.240;16.478;2023-05-08T12:09:42;100451.47;;;16.60;46.16
19594;BME280;9944;48.240;16.478;2023-05-08T12:13:49;100463.03;;;16.61;46.33
19594;BME280;9944;48.240;16.478;2023-05-08T12:17:59;100455.72;;;16.71;45.87
19594;BME280;9944;48.240;16.478;2023-05-08T12:22:03;100461.81;;;16.77;46.30
19594;BME280;9944;48.240;16.478;2023-05-08T12:26:07;100452.59;;;16.97;46.09
19594;BME280;9944;48.240;16.478;2023-05-08T12:30:13;100455.16;;;17.03;45.57
19594;BME280;9944;48.240;16.478;2023-05-08T12:34:18;100453.34;;;17.05;45.87
19594;BME280;9944;48.240;16.478;2023-05-08T12:38:24;100453.06;;;17.17;46.39
19594;BME280;9944;48.240;16.478;2023-05-08T12:42:40;100458.47;;;17.14;45.57
19594;BME280;9944;48.240;16.478;2023-05-08T12:46:49;100459.28;;;17.18;45.73
19594;BME280;9944;48.240;16.478;2023-05-08T12:50:53;100442.28;;;17.24;45.70
19594;BME280;9944;48.240;16.478;2023-05-08T12:54:56;100446.59;;;17.31;45.25
19594;BME280;9944;48.240;16.478;2023-05-08T12:58:59;100430.63;;;17.28;45.24
19594;BME280;9944;48.240;16.478;2023-05-08T13:03:04;100429.53;;;17.38;45.13
19594;BME280;9944;48.240;16.478;2023-05-08T13:07:08;100430.09;;;17.52;44.37
19594;BME280;9944;48.240;16.478;2023-05-08T13:11:11;100430.81;;;17.61;44.37
19594;BME280;9944;48.240;16.478;2023-05-08T13:15:14;100431.72;;;17.60;44.28
19594;BME280;9944;48.240;16.478;2023-05-08T13:19:19;100420.13;;;17.61;44.37
19594;BME280;9944;48.240;16.478;2023-05-08T13:23:22;100417.44;;;17.62;44.60
19594;BME280;9944;48.240;16.478;2023-05-08T13:27:25;100422.09;;;17.52;45.59
19594;BME280;9944;48.240;16.478;2023-05-08T13:31:28;100406.75;;;17.62;45.85
19594;BME280;9944;48.240;16.478;2023-05-08T13:35:33;100400.28;;;17.74;44.72
19594;BME280;9944;48.240;16.478;2023-05-08T13:39:36;100391.53;;;17.66;44.49
19594;BME280;9944;48.240;16.478;2023-05-08T13:43:40;100393.50;;;17.57;44.97
19594;BME280;9944;48.240;16.478;2023-05-08T13:47:43;100392.66;;;17.55;43.99
19594;BME280;9944;48.240;16.478;2023-05-08T13:51:48;100398.03;;;17.54;44.81
19594;BME280;9944;48.240;16.478;2023-05-08T13:55:57;100389.91;;;17.59;44.15
19594;BME280;9944;48.240;16.478;2023-05-08T14:00:00;100393.44;;;17.61;45.06
19594;BME280;9944;48.240;16.478;2023-05-08T14:04:07;100385.34;;;17.64;44.58
19594;BME280;9944;48.240;16.478;2023-05-08T14:08:12;100384.59;;;17.59;44.47
19594;BME280;9944;48.240;16.478;2023-05-08T14:12:15;100383.69;;;17.58;44.92
19594;BME280;9944;48.240;16.478;2023-05-08T14:16:18;100380.09;;;17.59;44.95
19594;BME280;9944;48.240;16.478;2023-05-08T14:20:22;100379.19;;;17.62;44.59
19594;BME280;9944;48.240;16.478;2023-05-08T14:24:26;100377.19;;;17.70;44.67
19594;BME280;9944;48.240;16.478;2023-05-08T14:28:29;100382.44;;;17.73;44.37
19594;BME280;9944;48.240;16.478;2023-05-08T14:32:32;100387.75;;;17.76;44.12
19594;BME280;9944;48.240;16.478;2023-05-08T14:36:36;100383.28;;;17.77;44.54
19594;BME280;9944;48.240;16.478;2023-05-08T14:40:40;100383.31;;;17.73;44.86
19594;BME280;9944;48.240;16.478;2023-05-08T14:44:43;100381.59;;;17.72;44.93
19594;BME280;9944;48.240;16.478;2023-05-08T14:48:46;100382.44;;;17.73;44.46
19594;BME280;9944;48.240;16.478;2023-05-08T14:52:49;100380.78;;;17.69;44.12
19594;BME280;9944;48.240;16.478;2023-05-08T14:56:54;100386.03;;;17.72;44.59
19594;BME280;9944;48.240;16.478;2023-05-08T15:00:57;100384.41;;;17.65;44.06
19594;BME280;9944;48.240;16.478;2023-05-08T15:05:00;100373.84;;;17.62;44.52
19594;BME280;9944;48.240;16.478;2023-05-08T15:09:09;100380.06;;;17.61;44.48
19594;BME280;9944;48.240;16.478;2023-05-08T15:13:13;100378.28;;;17.61;44.66
19594;BME280;9944;48.240;16.478;2023-05-08T15:17:16;100378.31;;;17.60;45.22
19594;BME280;9944;48.240;16.478;2023-05-08T15:21:19;100374.81;;;17.57;45.05
19594;BME280;9944;48.240;16.478;2023-05-08T15:25:26;100366.78;;;17.57;44.65
19594;BME280;9944;48.240;16.478;2023-05-08T15:29:31;100365.13;;;17.53;44.56
19594;BME280;9944;48.240;16.478;2023-05-08T15:33:34;100372.34;;;17.48;44.77
19594;BME280;9944;48.240;16.478;2023-05-08T15:37:37;100372.34;;;17.48;44.68
19594;BME280;9944;48.240;16.478;2023-05-08T15:41:40;100365.19;;;17.50;44.24
19594;BME280;9944;48.240;16.478;2023-05-08T15:45:45;100361.63;;;17.51;43.82
19594;BME280;9944;48.240;16.478;2023-05-08T15:49:48;100358.94;;;17.51;44.27
19594;BME280;9944;48.240;16.478;2023-05-08T15:53:51;100356.34;;;17.48;44.52
19594;BME280;9944;48.240;16.478;2023-05-08T15:57:54;100357.38;;;17.43;44.27
19594;BME280;9944;48.240;16.478;2023-05-08T16:01:58;100354.84;;;17.35;44.41
19594;BME280;9944;48.240;16.478;2023-05-08T16:06:01;100351.41;;;17.30;44.79
19594;BME280;9944;48.240;16.478;2023-05-08T16:10:06;100352.34;;;17.29;44.96
19594;BME280;9944;48.240;16.478;2023-05-08T16:14:09;100352.41;;;17.26;45.24
19594;BME280;9944;48.240;16.478;2023-05-08T16:18:13;100348.72;;;17.31;45.78
19594;BME280;9944;48.240;16.478;2023-05-08T16:22:16;100354.84;;;17.35;45.46
19594;BME280;9944;48.240;16.478;2023-05-08T16:26:20;100352.25;;;17.32;45.15
19594;BME280;9944;48.240;16.478;2023-05-08T16:30:23;100353.25;;;17.28;45.04
19594;BME280;9944;48.240;16.478;2023-05-08T16:34:27;100349.72;;;17.26;44.95
19594;BME280;9944;48.240;16.478;2023-05-08T16:38:31;100352.53;;;17.19;45.03
19594;BME280;9944;48.240;16.478;2023-05-08T16:42:34;100353.47;;;17.18;45.11
19594;BME280;9944;48.240;16.478;2023-05-08T16:46:37;100357.22;;;17.10;44.98
19594;BME280;9944;48.240;16.478;2023-05-08T16:50:42;100359.25;;;16.97;45.59
19594;BME280;9944;48.240;16.478;2023-05-08T16:54:45;100362.94;;;16.90;45.72
19594;BME280;9944;48.240;16.478;2023-05-08T16:58:48;100361.25;;;16.86;46.17
19594;BME280;9944;48.240;16.478;2023-05-08T17:02:51;100366.69;;;16.79;46.44
19594;BME280;9944;48.240;16.478;2023-05-08T17:06:55;100370.38;;;16.72;46.72
19594;BME280;9944;48.240;16.478;2023-05-08T17:11:00;100369.66;;;16.62;46.61
19594;BME280;9944;48.240;16.478;2023-05-08T17:15:04;100380.44;;;16.58;46.93
19594;BME280;9944;48.240;16.478;2023-05-08T17:19:08;100388.50;;;16.53;47.35
19594;BME280;9944;48.240;16.478;2023-05-08T17:23:12;100381.56;;;16.46;47.52
19594;BME280;9944;48.240;16.478;2023-05-08T17:27:15;100390.59;;;16.37;47.87
19594;BME280;9944;48.240;16.478;2023-05-08T17:31:19;100396.13;;;16.27;47.87
19594;BME280;9944;48.240;16.478;2023-05-08T17:35:22;100390.88;;;16.22;48.08
19594;BME280;9944;48.240;16.478;2023-05-08T17:39:27;100399.91;;;16.12;48.20
19594;BME280;9944;48.240;16.478;2023-05-08T17:43:30;100400.03;;;16.05;48.32
19594;BME280;9944;48.240;16.478;2023-05-08T17:47:33;100396.66;;;15.94;48.45
19594;BME280;9944;48.240;16.478;2023-05-08T17:51:38;100405.66;;;15.84;48.16
19594;BME280;9944;48.240;16.478;2023-05-08T17:55:43;100422.66;;;15.75;47.88
19594;BME280;9944;48.240;16.478;2023-05-08T17:59:46;100431.66;;;15.65;47.58
19594;BME280;9944;48.240;16.478;2023-05-08T18:03:51;100431.81;;;15.56;47.54
19594;BME280;9944;48.240;16.478;2023-05-08T18:07:54;100439.88;;;15.48;47.50
19594;BME280;9944;48.240;16.478;2023-05-08T18:11:59;100441.84;;;15.34;47.39
19594;BME280;9944;48.240;16.478;2023-05-08T18:16:03;100450.88;;;15.20;47.32
19594;BME280;9944;48.240;16.478;2023-05-08T18:20:07;100452.81;;;15.09;47.23
19594;BME280;9944;48.240;16.478;2023-05-08T18:24:10;100449.34;;;14.99;47.74
19594;BME280;9944;48.240;16.478;2023-05-08T18:28:15;100463.63;;;14.92;48.00
19594;BME280;9944;48.240;16.478;2023-05-08T18:32:18;100472.56;;;14.80;48.19
19594;BME280;9944;48.240;16.478;2023-05-08T18:36:21;100471.78;;;14.72;48.06
19594;BME280;9944;48.240;16.478;2023-05-08T18:40:24;100487.81;;;14.63;48.29
19594;BME280;9944;48.240;16.478;2023-05-08T18:44:28;100491.44;;;14.52;48.61
19594;BME280;9944;48.240;16.478;2023-05-08T18:48:31;100491.53;;;14.40;48.84
19594;BME280;9944;48.240;16.478;2023-05-08T18:52:34;100492.50;;;14.30;49.03
19594;BME280;9944;48.240;16.478;2023-05-08T18:56:37;100488.16;;;14.21;49.10
19594;BME280;9944;48.240;16.478;2023-05-08T19:00:42;100489.97;;;14.16;49.00
19594;BME280;9944;48.240;16.478;2023-05-08T19:04:45;100488.25;;;14.06;48.93
19594;BME280;9944;48.240;16.478;2023-05-08T19:08:48;100491.91;;;13.95;49.33
19594;BME280;9944;48.240;16.478;2023-05-08T19:12:52;100501.66;;;13.89;49.16
19594;BME280;9944;48.240;16.478;2023-05-08T19:16:57;100512.31;;;13.82;49.27
19594;BME280;9944;48.240;16.478;2023-05-08T19:21:00;100519.41;;;13.77;49.22
19594;BME280;9944;48.240;16.478;2023-05-08T19:25:04;100521.16;;;13.69;49.65
19594;BME280;9944;48.240;16.478;2023-05-08T19:29:07;100522.13;;;13.59;49.61
19594;BME280;9944;48.240;16.478;2023-05-08T19:33:12;100517.75;;;13.49;49.68
19594;BME280;9944;48.240;16.478;2023-05-08T19:37:15;100523.94;;;13.41;49.69
19594;BME280;9944;48.240;16.478;2023-05-08T19:41:18;100516.03;;;13.35;49.83
19594;BME280;9944;48.240;16.478;2023-05-08T19:45:21;100515.16;;;13.32;50.09
19594;BME280;9944;48.240;16.478;2023-05-08T19:49:26;100516.94;;;13.23;50.36
19594;BME280;9944;48.240;16.478;2023-05-08T19:53:29;100524.06;;;13.14;50.57
19594;BME280;9944;48.240;16.478;2023-05-08T19:57:32;100526.72;;;13.04;50.66
19594;BME280;9944;48.240;16.478;2023-05-08T20:01:35;100524.97;;;12.97;50.60
19594;BME280;9944;48.240;16.478;2023-05-08T20:05:39;100517.91;;;12.92;50.83
19594;BME280;9944;48.240;16.478;2023-05-08T20:09:42;100521.47;;;12.83;50.37
19594;BME280;9944;48.240;16.478;2023-05-08T20:13:46;100515.31;;;12.67;50.53
19594;BME280;9944;48.240;16.478;2023-05-08T20:17:49;100517.94;;;12.59;50.76
19594;BME280;9944;48.240;16.478;2023-05-08T20:21:53;100522.34;;;12.49;50.85
19594;BME280;9944;48.240;16.478;2023-05-08T20:25:56;100525.84;;;12.44;50.82
19594;BME280;9944;48.240;16.478;2023-05-08T20:29:59;100517.91;;;12.35;51.04
19594;BME280;9944;48.240;16.478;2023-05-08T20:34:03;100525.84;;;12.27;51.15
19594;BME280;9944;48.240;16.478;2023-05-08T20:38:07;100532.00;;;12.24;51.41
19594;BME280;9944;48.240;16.478;2023-05-08T20:42:10;100526.72;;;12.15;51.50
19594;BME280;9944;48.240;16.478;2023-05-08T20:46:13;100531.97;;;12.09;51.31
19594;BME280;9944;48.240;16.478;2023-05-08T20:50:17;100530.22;;;12.02;51.44
19594;BME280;9944;48.240;16.478;2023-05-08T20:54:21;100535.47;;;11.97;51.68
19594;BME280;9944;48.240;16.478;2023-05-08T20:58:24;100533.69;;;11.87;51.86
19594;BME280;9944;48.240;16.478;2023-05-08T21:02:27;100524.00;;;11.83;51.86
19594;BME280;9944;48.240;16.478;2023-05-08T21:06:30;100523.06;;;11.73;51.97
19594;BME280;9944;48.240;16.478;2023-05-08T21:10:35;100515.13;;;11.67;52.11
19594;BME280;9944;48.240;16.478;2023-05-08T21:14:38;100531.88;;;11.63;52.24
19594;BME280;9944;48.240;16.478;2023-05-08T21:18:41;100531.84;;;11.56;52.33
19594;BME280;9944;48.240;16.478;2023-05-08T21:22:44;100530.03;;;11.46;52.07
19594;BME280;9944;48.240;16.478;2023-05-08T21:26:49;100532.66;;;11.37;52.09
19594;BME280;9944;48.240;16.478;2023-05-08T21:30:52;100540.47;;;11.29;52.75
19594;BME280;9944;48.240;16.478;2023-05-08T21:34:55;100540.47;;;11.28;52.62